Time;durP1;ratioP1;P1;durP2;ratioP2;P2;SDS_P1;SDS_P2;PMS_P1;PMS_P2;Temp;Humidity;BMP_temperature;BMP_pressure;BME280_temperature;BME280_humidity;BME280_pressure;Samples;Min_cycle;Max_cycle;Signal;HPM_P1;HPM_P2
2022/01/27 00:05:19;;;;;;;;;;;21.60;44.20;;;;;;5116834;28;19946;-40
2022/01/27 00:08:11;;;;;;;;;;;21.60;44.20;;;;;;5116329;28;19973;-42
2022/01/27 00:13:13;;;;;;;;;;;21.60;44.20;;;;;;5098643;28;19924;-40
2022/01/27 00:15:41;;;;;;;;;;;21.60;44.20;;;;;;5117173;28;19924;-38
2022/01/27 00:18:41;;;;;;;;;;;21.60;44.20;;;;;;5116486;28;20363;-40
2022/01/27 00:21:01;;;;;;;;;;;21.60;44.20;;;;;;5112648;28;19972;-40
2022/01/27 00:23:28;;;;;;;;;;;21.60;44.20;;;;;;5116259;28;19924;-42
2022/01/27 00:25:55;;;;;;;;;;;21.60;44.20;;;;;;5115016;27;19924;-41
2022/01/27 00:28:22;;;;;;;;;;;21.60;44.20;;;;;;5116354;28;19967;-40
2022/01/27 00:30:48;;;;;;;;;;;21.60;44.20;;;;;;5115931;28;20387;-40
2022/01/27 00:33:15;;;;;;;;;;;21.60;44.20;;;;;;5115935;28;20468;-40
2022/01/27 00:35:42;;;;;;;;;;;21.60;44.20;;;;;;5116209;28;19947;-42
2022/01/27 00:38:09;;;;;;;;;;;21.60;44.20;;;;;;5115967;28;20014;-39
2022/01/27 00:40:36;;;;;;;;;;;21.60;44.20;;;;;;5114513;28;20515;-41
2022/01/27 00:43:03;;;;;;;;;;;21.60;44.20;;;;;;5116026;28;19924;-40
2022/01/27 00:45:32;;;;;;;;;;;21.60;44.20;;;;;;5115695;28;19924;-40
2022/01/27 00:48:03;;;;;;;;;;;21.60;44.20;;;;;;5114908;28;19963;-42
2022/01/27 00:50:32;;;;;;;;;;;21.50;44.10;;;;;;5115608;28;19924;-40
2022/01/27 00:53:02;;;;;;;;;;;21.50;44.10;;;;;;5115423;28;19931;-43
2022/01/27 00:55:33;;;;;;;;;;;21.60;44.20;;;;;;5114644;28;20472;-40
2022/01/27 00:58:23;;;;;;;;;;;21.50;44.10;;;;;;5115396;28;19924;-39
2022/01/27 01:00:55;;;;;;;;;;;21.50;44.10;;;;;;5115212;27;20375;-39
2022/01/27 01:03:36;;;;;;;;;;;21.50;44.10;;;;;;5115379;28;20375;-40
2022/01/27 01:06:49;;;;;;;;;;;21.50;44.10;;;;;;5115224;28;19924;-41
2022/01/27 01:14:38;;;;;;;;;;;21.50;44.10;;;;;;5115416;28;20272;-39
2022/01/27 01:19:42;;;;;;;;;;;21.50;44.20;;;;;;5114792;28;19928;-41
2022/01/27 01:29:26;;;;;;;;;;;21.50;44.20;;;;;;5115038;28;19971;-39
2022/01/27 01:33:12;;;;;;;;;;;21.50;44.20;;;;;;5114802;28;20450;-41
2022/01/27 01:35:50;;;;;;;;;;;21.50;44.30;;;;;;5114747;28;19924;-40
2022/01/27 01:38:18;;;;;;;;;;;21.50;44.20;;;;;;5114634;28;19963;-39
2022/01/27 01:40:46;;;;;;;;;;;21.50;44.30;;;;;;5114235;27;19947;-40
2022/01/27 01:43:14;;;;;;;;;;;21.50;44.30;;;;;;5114637;28;20398;-42
2022/01/27 01:45:41;;;;;;;;;;;21.50;44.30;;;;;;5114594;28;19924;-39
2022/01/27 01:48:08;;;;;;;;;;;21.40;44.20;;;;;;5114550;28;19970;-39
2022/01/27 01:50:36;;;;;;;;;;;21.40;44.20;;;;;;5114544;28;19928;-40
2022/01/27 01:53:03;;;;;;;;;;;21.40;44.20;;;;;;5114286;28;19966;-40
2022/01/27 01:55:31;;;;;;;;;;;21.40;44.30;;;;;;5114427;28;19924;-39
2022/01/27 01:57:58;;;;;;;;;;;21.40;44.30;;;;;;5112776;27;19978;-40
2022/01/27 02:00:26;;;;;;;;;;;21.40;44.30;;;;;;5114482;28;19963;-38
2022/01/27 02:02:54;;;;;;;;;;;21.40;44.30;;;;;;5114616;28;19924;-41
2022/01/27 02:05:24;;;;;;;;;;;21.40;44.20;;;;;;5096470;28;20007;-40
2022/01/27 02:08:16;;;;;;;;;;;21.40;44.30;;;;;;5114460;28;19946;-39
2022/01/27 02:19:12;;;;;;;;;;;21.40;44.30;;;;;;5114141;28;19924;-39
2022/01/27 02:21:45;;;;;;;;;;;21.40;44.30;;;;;;5113642;28;20334;-41
2022/01/27 02:24:13;;;;;;;;;;;21.40;44.30;;;;;;5114470;28;19963;-43
2022/01/27 02:26:41;;;;;;;;;;;21.40;44.30;;;;;;5113023;28;19932;-41
2022/01/27 02:29:08;;;;;;;;;;;21.40;44.30;;;;;;5114382;28;20010;-40
2022/01/27 02:31:35;;;;;;;;;;;21.40;44.40;;;;;;5114001;28;20022;-41
2022/01/27 02:34:05;;;;;;;;;;;21.40;44.30;;;;;;5114035;28;19924;-39
2022/01/27 02:36:35;;;;;;;;;;;21.40;44.30;;;;;;5113882;28;19924;-41
2022/01/27 02:39:06;;;;;;;;;;;21.40;44.30;;;;;;5114481;28;19977;-38
2022/01/27 02:41:53;;;;;;;;;;;21.40;44.40;;;;;;5112909;28;19928;-41
2022/01/27 02:44:20;;;;;;;;;;;21.40;44.40;;;;;;5063147;28;19967;-41
2022/01/27 02:46:49;;;;;;;;;;;21.40;44.40;;;;;;5114223;28;19931;-39
2022/01/27 02:49:16;;;;;;;;;;;21.40;44.40;;;;;;5113883;28;19927;-40
2022/01/27 02:51:43;;;;;;;;;;;21.30;44.30;;;;;;5114086;28;19924;-38
2022/01/27 02:54:10;;;;;;;;;;;21.30;44.30;;;;;;5114644;28;20010;-40
2022/01/27 02:56:43;;;;;;;;;;;21.40;44.40;;;;;;5112872;28;19938;-38
2022/01/27 02:59:11;;;;;;;;;;;21.30;44.30;;;;;;5113781;28;19975;-39
2022/01/27 03:01:38;;;;;;;;;;;21.30;44.30;;;;;;5114060;28;19923;-39
2022/01/27 03:04:05;;;;;;;;;;;21.30;44.30;;;;;;5114030;28;19924;-39
2022/01/27 03:06:32;;;;;;;;;;;21.30;44.30;;;;;;5113614;28;20280;-39
2022/01/27 03:08:59;;;;;;;;;;;21.30;44.30;;;;;;5113661;28;19975;-39
2022/01/27 03:11:53;;;;;;;;;;;21.30;44.30;;;;;;5117628;28;20018;-41
2022/01/27 03:14:22;;;;;;;;;;;21.30;44.30;;;;;;5113209;28;19963;-40
2022/01/27 03:16:51;;;;;;;;;;;21.30;44.30;;;;;;5117435;28;20376;-40
2022/01/27 03:19:18;;;;;;;;;;;21.30;44.30;;;;;;5117119;28;19923;-40
2022/01/27 03:21:45;;;;;;;;;;;21.30;44.30;;;;;;5117162;28;20014;-39
2022/01/27 03:24:12;;;;;;;;;;;21.30;44.30;;;;;;5117245;28;20436;-40
2022/01/27 03:26:41;;;;;;;;;;;21.30;44.30;;;;;;5116456;28;20379;-40
2022/01/27 03:29:08;;;;;;;;;;;21.30;44.30;;;;;;5117222;27;19971;-39
2022/01/27 03:31:35;;;;;;;;;;;21.30;44.40;;;;;;5117192;28;20288;-38
2022/01/27 03:34:02;;;;;;;;;;;21.30;44.40;;;;;;5117489;28;20328;-39
2022/01/27 03:36:29;;;;;;;;;;;21.30;44.40;;;;;;5116983;28;19924;-39
2022/01/27 03:38:56;;;;;;;;;;;21.30;44.40;;;;;;5116956;28;20022;-38
2022/01/27 03:41:23;;;;;;;;;;;21.30;44.40;;;;;;5116826;28;19928;-40
2022/01/27 03:43:51;;;;;;;;;;;21.30;44.40;;;;;;5115825;28;20337;-39
2022/01/27 03:46:18;;;;;;;;;;;21.30;44.40;;;;;;5117182;28;19928;-40
2022/01/27 03:48:45;;;;;;;;;;;21.30;44.40;;;;;;5116782;28;20018;-38
2022/01/27 03:51:12;;;;;;;;;;;21.30;44.40;;;;;;5117096;28;19924;-40
2022/01/27 03:53:39;;;;;;;;;;;21.30;44.40;;;;;;5116558;28;20375;-40
2022/01/27 03:56:07;;;;;;;;;;;21.30;44.50;;;;;;5116917;28;20018;-39
2022/01/27 03:58:35;;;;;;;;;;;21.30;44.50;;;;;;5115816;27;20349;-42
2022/01/27 04:01:03;;;;;;;;;;;21.30;44.40;;;;;;5116655;27;19927;-38
2022/01/27 04:03:32;;;;;;;;;;;21.30;44.40;;;;;;5116862;28;19931;-40
2022/01/27 04:06:09;;;;;;;;;;;21.30;44.50;;;;;;5116341;28;19963;-40
2022/01/27 04:08:38;;;;;;;;;;;21.30;44.50;;;;;;5116826;28;20014;-40
2022/01/27 04:11:05;;;;;;;;;;;21.20;44.40;;;;;;5116412;28;19924;-40
2022/01/27 04:13:32;;;;;;;;;;;21.20;44.40;;;;;;5115489;28;20018;-42
2022/01/27 04:16:00;;;;;;;;;;;21.20;44.40;;;;;;5116638;28;19923;-39
2022/01/27 04:18:27;;;;;;;;;;;21.20;44.40;;;;;;5116193;28;20407;-38
2022/01/27 04:20:54;;;;;;;;;;;21.20;44.40;;;;;;5115795;28;19928;-39
2022/01/27 04:23:23;;;;;;;;;;;21.20;44.40;;;;;;5116009;28;19923;-41
2022/01/27 04:25:50;;;;;;;;;;;21.20;44.40;;;;;;5116436;28;19969;-39
2022/01/27 04:28:30;;;;;;;;;;;21.20;44.50;;;;;;5115180;27;19967;-41
2022/01/27 04:30:59;;;;;;;;;;;21.20;44.40;;;;;;5116030;28;19978;-40
2022/01/27 04:33:29;;;;;;;;;;;21.20;44.40;;;;;;5115986;28;19924;-39
2022/01/27 04:36:00;;;;;;;;;;;21.20;44.40;;;;;;5116107;28;20325;-41
2022/01/27 04:38:34;;;;;;;;;;;21.20;44.40;;;;;;5115820;28;19977;-39
2022/01/27 04:48:26;;;;;;;;;;;21.20;44.40;;;;;;5115993;28;19924;-40
2022/01/27 04:50:54;;;;;;;;;;;21.20;44.40;;;;;;5115625;28;19930;-41
2022/01/27 04:53:31;;;;;;;;;;;21.20;44.40;;;;;;5115386;28;19924;-40
2022/01/27 04:56:16;;;;;;;;;;;21.20;44.40;;;;;;5115552;28;19930;-41
2022/01/27 04:58:46;;;;;;;;;;;21.20;44.50;;;;;;5114569;28;19959;-39
2022/01/27 05:01:13;;;;;;;;;;;21.20;44.50;;;;;;5115408;28;19946;-39
2022/01/27 05:04:04;;;;;;;;;;;21.20;44.50;;;;;;5115357;28;20445;-43
2022/01/27 05:06:31;;;;;;;;;;;21.20;44.40;;;;;;5115192;28;19924;-39
2022/01/27 05:08:58;;;;;;;;;;;21.20;44.50;;;;;;5116095;28;19928;-41
2022/01/27 05:14:04;;;;;;;;;;;21.20;44.50;;;;;;5113922;28;19924;-43
2022/01/27 05:16:31;;;;;;;;;;;21.10;44.40;;;;;;5115092;28;19924;-41
2022/01/27 05:18:58;;;;;;;;;;;21.10;44.40;;;;;;5114954;28;19924;-40
2022/01/27 05:21:25;;;;;;;;;;;21.10;44.40;;;;;;5095127;28;20272;-39
2022/01/27 05:23:52;;;;;;;;;;;21.10;44.40;;;;;;5094930;28;19974;-39
2022/01/27 05:26:19;;;;;;;;;;;21.20;44.50;;;;;;5095413;28;19967;-40
2022/01/27 05:28:46;;;;;;;;;;;21.10;44.40;;;;;;5093308;28;19971;-38
2022/01/27 05:31:13;;;;;;;;;;;21.10;44.40;;;;;;5094771;28;20334;-40
2022/01/27 05:33:40;;;;;;;;;;;21.10;44.40;;;;;;5094203;28;20302;-40
2022/01/27 05:36:07;;;;;;;;;;;21.10;44.40;;;;;;5094628;28;20011;-40
2022/01/27 05:38:35;;;;;;;;;;;21.10;44.40;;;;;;5094275;28;19924;-40
2022/01/27 05:41:02;;;;;;;;;;;21.10;44.40;;;;;;5076890;28;19993;-41
2022/01/27 05:43:30;;;;;;;;;;;21.10;44.40;;;;;;5093517;28;20307;-41
2022/01/27 05:45:57;;;;;;;;;;;21.10;44.40;;;;;;5094512;28;20062;-40
2022/01/27 05:48:24;;;;;;;;;;;21.10;44.40;;;;;;5094560;28;20272;-42
2022/01/27 05:50:51;;;;;;;;;;;21.10;44.50;;;;;;5094685;28;19953;-42
2022/01/27 05:53:18;;;;;;;;;;;21.10;44.40;;;;;;5094274;28;19981;-39
2022/01/27 05:55:45;;;;;;;;;;;21.10;44.50;;;;;;5094349;28;19973;-42
2022/01/27 05:58:12;;;;;;;;;;;21.10;44.50;;;;;;5094342;28;19971;-43
2022/01/27 06:00:39;;;;;;;;;;;21.10;44.50;;;;;;5109604;28;19935;-39
2022/01/27 06:03:06;;;;;;;;;;;21.10;44.50;;;;;;5114368;28;20043;-40
2022/01/27 06:05:33;;;;;;;;;;;21.10;44.50;;;;;;5114620;28;20025;-40
2022/01/27 06:08:00;;;;;;;;;;;21.10;44.50;;;;;;5114431;28;19930;-40
2022/01/27 06:10:27;;;;;;;;;;;21.10;44.50;;;;;;5114226;28;19924;-42
2022/01/27 06:12:56;;;;;;;;;;;21.10;44.50;;;;;;5114249;28;20365;-42
2022/01/27 06:15:24;;;;;;;;;;;21.00;44.40;;;;;;5096632;28;19977;-40
2022/01/27 06:17:52;;;;;;;;;;;21.10;44.50;;;;;;5093870;28;20337;-39
2022/01/27 06:20:20;;;;;;;;;;;21.00;44.40;;;;;;5104839;28;19975;-40
2022/01/27 06:22:47;;;;;;;;;;;21.00;44.40;;;;;;5113896;28;20317;-38
2022/01/27 06:25:14;;;;;;;;;;;21.00;45.10;;;;;;5114052;28;19924;-40
2022/01/27 06:27:41;;;;;;;;;;;21.10;44.50;;;;;;5114043;28;19924;-39
2022/01/27 06:30:12;;;;;;;;;;;21.00;44.40;;;;;;5124914;28;19969;-41
2022/01/27 06:32:39;;;;;;;;;;;21.00;44.50;;;;;;5134506;28;19931;-39
2022/01/27 06:35:06;;;;;;;;;;;21.00;44.40;;;;;;5134386;28;19930;-39
2022/01/27 06:37:34;;;;;;;;;;;21.00;44.40;;;;;;5134567;28;20014;-40
2022/01/27 06:40:01;;;;;;;;;;;21.00;44.40;;;;;;5134627;28;19972;-41
2022/01/27 06:42:28;;;;;;;;;;;21.00;44.50;;;;;;5134246;28;19927;-38
2022/01/27 06:44:55;;;;;;;;;;;21.10;44.50;;;;;;5123641;27;20379;-41
2022/01/27 06:47:22;;;;;;;;;;;21.00;44.40;;;;;;5117927;28;19923;-39
2022/01/27 06:49:49;;;;;;;;;;;21.00;44.50;;;;;;5118202;28;19971;-44
2022/01/27 06:52:16;;;;;;;;;;;21.00;44.50;;;;;;5117745;28;19924;-40
2022/01/27 06:54:43;;;;;;;;;;;21.00;44.40;;;;;;5117865;28;19946;-43
2022/01/27 06:57:10;;;;;;;;;;;21.00;44.40;;;;;;5118081;28;20031;-40
2022/01/27 06:59:37;;;;;;;;;;;21.00;44.40;;;;;;5116769;27;19984;-41
2022/01/27 07:02:04;;;;;;;;;;;21.00;44.40;;;;;;5117587;28;19924;-41
2022/01/27 07:04:31;;;;;;;;;;;21.00;44.40;;;;;;5117877;28;19923;-44
2022/01/27 07:06:58;;;;;;;;;;;21.00;44.40;;;;;;5117737;28;19927;-46
2022/01/27 07:09:25;;;;;;;;;;;21.00;44.40;;;;;;5117576;28;19969;-47
2022/01/27 07:11:52;;;;;;;;;;;21.00;44.40;;;;;;5117825;28;19976;-40
2022/01/27 07:14:19;;;;;;;;;;;21.00;44.40;;;;;;5116587;27;20026;-41
2022/01/27 07:16:46;;;;;;;;;;;21.00;44.40;;;;;;5117212;28;20007;-41
2022/01/27 07:19:13;;;;;;;;;;;21.00;44.40;;;;;;5117489;28;20010;-40
2022/01/27 07:21:40;;;;;;;;;;;21.00;44.40;;;;;;5117489;28;20283;-40
2022/01/27 07:24:07;;;;;;;;;;;21.00;44.40;;;;;;5117652;28;19982;-39
2022/01/27 07:26:35;;;;;;;;;;;21.00;44.40;;;;;;5117255;28;19924;-40
2022/01/27 07:29:02;;;;;;;;;;;21.00;44.30;;;;;;5099467;28;19924;-39
2022/01/27 07:31:28;;;;;;;;;;;21.00;44.30;;;;;;5116633;28;19978;-38
2022/01/27 07:33:56;;;;;;;;;;;21.00;44.40;;;;;;5117771;28;19930;-40
2022/01/27 07:36:23;;;;;;;;;;;21.00;44.30;;;;;;5117210;28;19924;-42
2022/01/27 07:38:50;;;;;;;;;;;21.00;44.40;;;;;;5117235;28;19969;-41
2022/01/27 07:41:18;;;;;;;;;;;21.00;44.30;;;;;;5117211;28;19928;-41
2022/01/27 07:43:45;;;;;;;;;;;21.00;44.30;;;;;;5116843;28;19967;-44
2022/01/27 07:46:13;;;;;;;;;;;21.00;44.30;;;;;;5115645;27;19965;-41
2022/01/27 07:48:40;;;;;;;;;;;21.00;44.40;;;;;;5116439;28;19924;-39
2022/01/27 07:51:08;;;;;;;;;;;21.00;44.30;;;;;;5116677;28;19924;-40
2022/01/27 07:53:36;;;;;;;;;;;21.10;44.40;;;;;;5116601;28;19924;-40
2022/01/27 07:56:23;;;;;;;;;;;21.00;44.30;;;;;;5116050;28;19959;-41
2022/01/27 07:58:49;;;;;;;;;;;21.00;44.30;;;;;;5117024;28;19974;-43
2022/01/27 08:01:16;;;;;;;;;;;21.00;44.30;;;;;;5115018;28;19970;-41
2022/01/27 08:03:44;;;;;;;;;;;21.00;44.30;;;;;;5116694;28;20014;-44
2022/01/27 08:06:11;;;;;;;;;;;21.10;44.30;;;;;;5116514;28;20292;-42
2022/01/27 08:08:38;;;;;;;;;;;21.00;44.20;;;;;;5116673;28;19924;-41
2022/01/27 08:11:05;;;;;;;;;;;21.10;44.30;;;;;;5116627;28;19924;-39
2022/01/27 08:13:32;;;;;;;;;;;21.10;44.30;;;;;;5098633;28;20337;-39
2022/01/27 08:16:05;;;;;;;;;;;21.10;44.20;;;;;;5115207;27;19924;-39
2022/01/27 08:18:43;;;;;;;;;;;21.10;44.20;;;;;;5117211;28;19982;-39
2022/01/27 08:21:10;;;;;;;;;;;21.10;44.20;;;;;;5097894;28;19923;-38
2022/01/27 08:23:40;;;;;;;;;;;21.10;44.20;;;;;;5116303;28;20279;-40
2022/01/27 08:26:10;;;;;;;;;;;21.10;44.20;;;;;;5116091;28;19974;-39
2022/01/27 08:28:43;;;;;;;;;;;21.10;44.10;;;;;;5116081;28;19931;-44
2022/01/27 08:31:13;;;;;;;;;;;21.10;44.10;;;;;;5115259;27;19924;-40
2022/01/27 08:33:41;;;;;;;;;;;21.10;44.10;;;;;;5115952;28;19962;-40
2022/01/27 08:36:08;;;;;;;;;;;21.10;44.00;;;;;;5116116;28;20352;-40
2022/01/27 08:38:43;;;;;;;;;;;21.10;44.00;;;;;;5116073;28;19928;-41
2022/01/27 08:41:13;;;;;;;;;;;21.10;44.00;;;;;;5115749;28;19924;-39
2022/01/27 08:43:40;;;;;;;;;;;21.20;44.10;;;;;;5116068;28;20345;-40
2022/01/27 08:46:07;;;;;;;;;;;21.20;44.00;;;;;;5096794;28;19923;-42
2022/01/27 08:48:38;;;;;;;;;;;21.20;44.10;;;;;;5116121;28;19923;-38
2022/01/27 08:51:10;;;;;;;;;;;21.20;44.00;;;;;;5115635;28;19930;-40
2022/01/27 08:53:48;;;;;;;;;;;21.20;44.00;;;;;;5115722;28;20340;-40
2022/01/27 08:56:16;;;;;;;;;;;21.20;43.90;;;;;;5115763;28;19924;-42
2022/01/27 08:59:06;;;;;;;;;;;21.20;43.90;;;;;;5115513;28;20371;-46
2022/01/27 09:01:33;;;;;;;;;;;21.20;43.90;;;;;;5114137;28;19971;-40
2022/01/27 09:04:01;;;;;;;;;;;21.20;43.90;;;;;;5115652;28;19930;-42
2022/01/27 09:06:28;;;;;;;;;;;21.20;43.80;;;;;;5115205;28;19924;-40
2022/01/27 09:08:56;;;;;;;;;;;21.20;43.80;;;;;;5114310;28;19930;-42
2022/01/27 09:11:24;;;;;;;;;;;21.20;43.70;;;;;;5116089;28;19924;-39
2022/01/27 09:14:12;;;;;;;;;;;21.30;43.80;;;;;;5115645;28;19969;-47
2022/01/27 09:16:39;;;;;;;;;;;21.30;43.90;;;;;;5113928;28;20026;-43
2022/01/27 09:19:14;;;;;;;;;;;21.30;43.80;;;;;;5115263;28;19924;-41
2022/01/27 09:21:45;;;;;;;;;;;21.30;43.90;;;;;;5114770;28;19972;-40
2022/01/27 09:24:18;;;;;;;;;;;21.30;43.90;;;;;;5115002;28;19976;-42
2022/01/27 09:29:16;;;;;;;;;;;21.30;43.80;;;;;;5115303;28;20413;-48
2022/01/27 09:31:44;;;;;;;;;;;21.30;43.70;;;;;;5114020;27;20375;-43
2022/01/27 09:34:31;;;;;;;;;;;21.30;43.70;;;;;;5114771;28;19923;-41
2022/01/27 09:37:02;;;;;;;;;;;21.30;43.70;;;;;;5115059;28;19963;-43
2022/01/27 09:39:32;;;;;;;;;;;21.40;43.70;;;;;;5115174;28;20319;-44
2022/01/27 09:41:59;;;;;;;;;;;21.40;43.70;;;;;;5115169;28;19928;-42
2022/01/27 09:44:29;;;;;;;;;;;21.40;43.70;;;;;;5096981;28;19924;-45
2022/01/27 09:46:59;;;;;;;;;;;21.40;43.60;;;;;;5113582;27;19924;-43
2022/01/27 09:50:07;;;;;;;;;;;21.40;43.50;;;;;;5114444;28;19931;-43
2022/01/27 09:52:19;;;;;;;;;;;21.40;43.50;;;;;;5111577;28;19927;-41
2022/01/27 09:54:46;;;;;;;;;;;21.40;43.50;;;;;;5114719;28;20006;-41
2022/01/27 09:57:19;;;;;;;;;;;21.40;43.50;;;;;;5096527;28;19924;-41
2022/01/27 09:59:47;;;;;;;;;;;21.50;43.50;;;;;;5114305;28;20398;-40
2022/01/27 10:02:16;;;;;;;;;;;21.50;43.40;;;;;;5113135;28;19930;-42
2022/01/27 10:04:46;;;;;;;;;;;21.50;43.40;;;;;;5114196;28;20395;-42
2022/01/27 10:07:15;;;;;;;;;;;21.50;43.30;;;;;;5114179;28;19930;-41
2022/01/27 10:10:03;;;;;;;;;;;21.50;43.20;;;;;;5114340;28;19924;-39
2022/01/27 10:12:34;;;;;;;;;;;21.50;43.20;;;;;;5114109;28;19923;-46
2022/01/27 10:15:12;;;;;;;;;;;21.50;43.20;;;;;;5114241;28;19935;-44
2022/01/27 10:17:59;;;;;;;;;;;21.60;43.20;;;;;;5113380;28;20284;-42
2022/01/27 10:20:26;;;;;;;;;;;21.60;43.20;;;;;;5096746;28;20018;-43
2022/01/27 10:23:13;;;;;;;;;;;21.60;43.10;;;;;;5113782;28;19975;-41
2022/01/27 10:25:49;;;;;;;;;;;21.60;43.00;;;;;;5114289;28;20295;-42
2022/01/27 10:28:22;;;;;;;;;;;21.60;43.00;;;;;;5114860;28;19928;-41
2022/01/27 10:30:58;;;;;;;;;;;21.60;43.00;;;;;;5113968;28;20424;-42
2022/01/27 10:33:25;;;;;;;;;;;21.70;43.00;;;;;;5113049;28;19924;-43
2022/01/27 10:35:52;;;;;;;;;;;21.60;42.90;;;;;;5114115;28;19924;-42
2022/01/27 10:38:19;;;;;;;;;;;21.70;43.00;;;;;;5113903;28;20311;-43
2022/01/27 10:40:49;;;;;;;;;;;21.70;43.00;;;;;;5113839;28;19976;-41
2022/01/27 10:43:19;;;;;;;;;;;21.70;42.90;;;;;;5114125;28;19924;-40
2022/01/27 10:46:10;;;;;;;;;;;21.70;42.90;;;;;;5113909;28;20018;-42
2022/01/27 10:48:49;;;;;;;;;;;21.70;42.90;;;;;;5112740;28;19923;-46
2022/01/27 10:51:22;;;;;;;;;;;21.70;42.90;;;;;;5113858;28;19927;-42
2022/01/27 10:54:00;;;;;;;;;;;21.70;42.80;;;;;;5113806;28;19923;-40
2022/01/27 10:56:29;;;;;;;;;;;21.70;42.80;;;;;;5113832;28;20329;-41
2022/01/27 10:58:57;;;;;;;;;;;21.70;42.80;;;;;;5114119;28;19967;-40
2022/01/27 11:01:27;;;;;;;;;;;21.80;42.90;;;;;;5113698;28;19924;-40
2022/01/27 11:03:55;;;;;;;;;;;21.80;42.80;;;;;;5095667;28;19924;-48
2022/01/27 11:06:25;;;;;;;;;;;21.80;42.80;;;;;;5114059;28;19924;-41
2022/01/27 11:08:57;;;;;;;;;;;21.80;42.80;;;;;;5114262;28;20079;-44
2022/01/27 11:11:25;;;;;;;;;;;21.80;42.80;;;;;;5113931;28;19924;-40
2022/01/27 11:13:54;;;;;;;;;;;21.80;42.80;;;;;;5113912;28;19930;-39
2022/01/27 11:16:28;;;;;;;;;;;21.80;42.80;;;;;;5113941;28;20282;-40
2022/01/27 11:19:02;;;;;;;;;;;21.80;42.80;;;;;;5112706;28;20014;-43
2022/01/27 11:21:35;;;;;;;;;;;21.80;42.70;;;;;;5113677;28;19970;-40
2022/01/27 11:24:14;;;;;;;;;;;21.80;42.80;;;;;;5113614;28;19978;-39
2022/01/27 11:26:43;;;;;;;;;;;21.80;42.80;;;;;;5113865;28;19955;-39
2022/01/27 11:29:11;;;;;;;;;;;21.80;42.70;;;;;;5113506;28;20371;-40
2022/01/27 11:31:54;;;;;;;;;;;21.80;42.70;;;;;;5115240;28;20325;-41
2022/01/27 11:34:21;;;;;;;;;;;21.80;42.70;;;;;;5117031;28;19938;-39
2022/01/27 11:37:05;;;;;;;;;;;21.90;42.80;;;;;;5117025;28;19934;-42
2022/01/27 11:39:47;;;;;;;;;;;21.90;42.80;;;;;;5117213;28;19950;-43
2022/01/27 11:42:18;;;;;;;;;;;21.90;42.80;;;;;;5117052;28;20383;-42
2022/01/27 11:44:46;;;;;;;;;;;21.90;42.70;;;;;;5117246;28;19923;-40
2022/01/27 11:47:46;;;;;;;;;;;21.90;42.70;;;;;;5115504;27;19930;-41
2022/01/27 11:50:30;;;;;;;;;;;21.90;42.70;;;;;;5117066;28;20018;-44
2022/01/27 11:52:58;;;;;;;;;;;21.90;42.70;;;;;;5119726;27;19928;-40
2022/01/27 11:55:25;;;;;;;;;;;21.90;42.80;;;;;;5116375;28;20413;-42
2022/01/27 11:57:53;;;;;;;;;;;21.90;42.80;;;;;;5116105;28;19924;-41
2022/01/27 12:00:21;;;;;;;;;;;21.90;42.70;;;;;;5116605;27;20354;-44
2022/01/27 12:03:04;;;;;;;;;;;22.00;42.80;;;;;;5115634;27;19973;-44
2022/01/27 12:05:32;;;;;;;;;;;22.00;42.80;;;;;;5116647;28;19928;-42
2022/01/27 12:08:08;;;;;;;;;;;22.00;42.80;;;;;;5116593;28;19928;-42
2022/01/27 12:10:45;;;;;;;;;;;22.00;42.90;;;;;;5116526;28;19931;-44
2022/01/27 12:13:29;;;;;;;;;;;22.00;42.90;;;;;;5115930;28;19931;-42
2022/01/27 12:18:56;;;;;;;;;;;22.00;42.90;;;;;;5115415;28;19935;-43
2022/01/27 12:21:44;;;;;;;;;;;22.00;43.00;;;;;;5115862;28;19945;-42
2022/01/27 12:24:11;;;;;;;;;;;22.00;43.00;;;;;;5116367;28;19924;-42
2022/01/27 12:26:57;;;;;;;;;;;22.00;43.00;;;;;;5116302;28;19935;-42
2022/01/27 12:29:25;;;;;;;;;;;22.00;43.00;;;;;;5116021;28;19927;-39
2022/01/27 12:31:53;;;;;;;;;;;22.00;43.00;;;;;;5116086;28;19989;-39
2022/01/27 12:34:21;;;;;;;;;;;22.10;43.00;;;;;;5114373;27;20044;-43
2022/01/27 12:36:57;;;;;;;;;;;22.10;43.10;;;;;;5115752;28;20310;-43
2022/01/27 12:39:25;;;;;;;;;;;22.10;43.10;;;;;;5114834;28;19930;-41
2022/01/27 12:41:54;;;;;;;;;;;22.10;43.10;;;;;;5114992;28;19924;-40
2022/01/27 12:44:22;;;;;;;;;;;22.10;43.10;;;;;;5115332;28;19924;-41
2022/01/27 12:47:11;;;;;;;;;;;22.10;43.10;;;;;;5115963;28;19924;-41
2022/01/27 12:49:45;;;;;;;;;;;22.10;43.00;;;;;;5114778;28;19930;-42
2022/01/27 12:52:21;;;;;;;;;;;22.10;43.00;;;;;;5115651;28;19924;-42
2022/01/27 12:54:50;;;;;;;;;;;22.10;43.00;;;;;;5115304;28;19950;-40
2022/01/27 12:57:38;;;;;;;;;;;22.20;43.10;;;;;;5115200;28;19930;-40
2022/01/27 13:00:06;;;;;;;;;;;22.20;43.10;;;;;;5115533;27;19966;-40
2022/01/27 13:02:33;;;;;;;;;;;22.20;43.10;;;;;;5115234;28;19931;-41
2022/01/27 13:05:07;;;;;;;;;;;22.20;43.10;;;;;;5114538;27;20331;-40
2022/01/27 13:07:38;;;;;;;;;;;22.20;43.10;;;;;;5097565;28;19975;-43
2022/01/27 13:10:13;;;;;;;;;;;22.20;43.10;;;;;;5118242;27;20275;-43
2022/01/27 13:12:47;;;;;;;;;;;22.20;43.10;;;;;;5125497;27;20010;-40
2022/01/27 13:15:32;;;;;;;;;;;22.20;43.10;;;;;;5135722;27;19958;-40
2022/01/27 13:18:05;;;;;;;;;;;22.20;43.10;;;;;;5134238;27;20041;-45
2022/01/27 13:20:43;;;;;;;;;;;22.20;43.10;;;;;;5115262;28;19969;-39
2022/01/27 13:23:36;;;;;;;;;;;22.20;43.10;;;;;;5114809;28;20023;-40
2022/01/27 13:26:06;;;;;;;;;;;22.20;43.00;;;;;;5114999;28;20413;-42
2022/01/27 13:28:35;;;;;;;;;;;22.30;43.10;;;;;;5114907;28;19959;-42
2022/01/27 13:31:07;;;;;;;;;;;22.30;43.10;;;;;;5114861;28;20337;-42
2022/01/27 13:33:42;;;;;;;;;;;22.30;43.10;;;;;;5118943;27;19927;-43
2022/01/27 13:36:24;;;;;;;;;;;22.30;43.10;;;;;;5135661;27;19930;-40
2022/01/27 13:39:11;;;;;;;;;;;22.30;43.10;;;;;;5117505;27;19954;-40
2022/01/27 13:41:40;;;;;;;;;;;22.30;43.10;;;;;;5135339;27;20025;-42
2022/01/27 13:44:08;;;;;;;;;;;22.30;43.10;;;;;;5134865;27;20375;-40
2022/01/27 13:46:37;;;;;;;;;;;22.30;43.10;;;;;;5135168;27;19956;-40
2022/01/27 13:49:06;;;;;;;;;;;22.30;43.00;;;;;;5126085;27;20371;-40
2022/01/27 13:51:33;;;;;;;;;;;22.30;43.10;;;;;;5114179;28;19930;-41
2022/01/27 13:54:04;;;;;;;;;;;22.40;43.10;;;;;;5113736;28;19927;-41
2022/01/27 13:56:38;;;;;;;;;;;22.40;43.10;;;;;;5114327;28;19924;-42
2022/01/27 13:59:11;;;;;;;;;;;22.40;43.10;;;;;;5114467;28;19993;-43
2022/01/27 14:01:39;;;;;;;;;;;22.30;43.00;;;;;;5114471;28;19924;-39
2022/01/27 14:04:06;;;;;;;;;;;22.40;43.10;;;;;;5113227;28;19931;-43
2022/01/27 14:06:46;;;;;;;;;;;22.40;43.10;;;;;;5114084;28;19924;-41
2022/01/27 14:09:14;;;;;;;;;;;22.30;43.00;;;;;;5114122;28;19967;-40
2022/01/27 14:11:41;;;;;;;;;;;22.40;43.10;;;;;;5096056;28;19924;-43
2022/01/27 14:14:08;;;;;;;;;;;22.40;43.10;;;;;;5113983;28;19923;-41
2022/01/27 14:16:37;;;;;;;;;;;22.40;43.10;;;;;;5114290;28;19946;-40
2022/01/27 14:19:14;;;;;;;;;;;22.40;43.10;;;;;;5112828;28;20405;-43
2022/01/27 14:21:45;;;;;;;;;;;22.40;43.10;;;;;;5126330;27;19935;-43
2022/01/27 14:24:34;;;;;;;;;;;22.40;43.10;;;;;;5131148;28;19928;-44
2022/01/27 14:27:02;;;;;;;;;;;22.40;43.10;;;;;;5134613;28;19934;-40
2022/01/27 14:29:29;;;;;;;;;;;22.40;43.20;;;;;;5134414;28;19972;-40
2022/01/27 14:31:56;;;;;;;;;;;22.40;43.20;;;;;;5134708;28;19923;-41
2022/01/27 14:34:31;;;;;;;;;;;22.40;43.30;;;;;;5122510;28;19923;-40
2022/01/27 14:36:58;;;;;;;;;;;22.30;43.20;;;;;;5079237;28;19924;-40
2022/01/27 14:39:26;;;;;;;;;;;22.40;43.30;;;;;;5116342;28;19930;-42
2022/01/27 14:41:53;;;;;;;;;;;22.40;43.30;;;;;;5134023;28;20023;-45
2022/01/27 14:44:20;;;;;;;;;;;22.40;43.30;;;;;;5126819;28;19978;-41
2022/01/27 14:46:49;;;;;;;;;;;22.40;43.30;;;;;;5124743;28;19935;-39
2022/01/27 14:49:16;;;;;;;;;;;22.30;43.30;;;;;;5122035;28;20321;-44
2022/01/27 14:51:47;;;;;;;;;;;22.30;43.30;;;;;;5123868;28;20323;-39
2022/01/27 14:54:14;;;;;;;;;;;22.30;43.30;;;;;;5125074;28;19930;-40
2022/01/27 14:56:41;;;;;;;;;;;22.30;43.40;;;;;;5123375;28;19927;-41
2022/01/27 14:59:08;;;;;;;;;;;22.30;43.40;;;;;;5122998;28;19923;-40
2022/01/27 15:01:35;;;;;;;;;;;22.30;43.50;;;;;;5122339;28;19924;-41
2022/01/27 15:04:03;;;;;;;;;;;22.30;43.60;;;;;;5123074;28;19931;-41
2022/01/27 15:06:32;;;;;;;;;;;22.30;43.60;;;;;;5126232;27;19924;-40
2022/01/27 15:08:59;;;;;;;;;;;22.30;43.70;;;;;;5126948;27;20015;-40
2022/01/27 15:11:26;;;;;;;;;;;22.20;43.60;;;;;;5109386;27;20329;-40
2022/01/27 15:18:48;;;;;;;;;;;22.20;43.70;;;;;;5128419;27;20332;-41
2022/01/27 15:19:53;;;;;;;;;;;22.20;43.80;;;;;;5127036;27;19938;-41
2022/01/27 15:22:24;;;;;;;;;;;22.20;43.90;;;;;;5126474;27;19924;-39
2022/01/27 15:24:52;;;;;;;;;;;22.20;43.90;;;;;;5126195;27;20391;-40
2022/01/27 15:27:19;;;;;;;;;;;22.20;44.00;;;;;;5127938;27;19931;-42